sensor_id;sensor_type;location;lat;lon;timestamp;P1;durP1;ratioP1;P2;durP2;ratioP2
56136;SDS011;42008;52.934;5.884;2023-05-24T00:01:14;32.77;;;7.83;;
56136;SDS011;42008;52.934;5.884;2023-05-24T00:03:40;31.30;;;8.13;;
56136;SDS011;42008;52.934;5.884;2023-05-24T00:06:06;30.10;;;8.47;;
56136;SDS011;42008;52.934;5.884;2023-05-24T00:08:32;33.07;;;8.10;;
56136;SDS011;42008;52.934;5.884;2023-05-24T00:10:58;39.63;;;7.80;;
56136;SDS011;42008;52.934;5.884;2023-05-24T00:13:24;38.47;;;9.10;;
56136;SDS011;42008;52.934;5.884;2023-05-24T00:15:50;37.03;;;7.87;;
56136;SDS011;42008;52.934;5.884;2023-05-24T00:18:16;31.13;;;7.90;;
56136;SDS011;42008;52.934;5.884;2023-05-24T00:20:43;32.53;;;8.13;;
56136;SDS011;42008;52.934;5.884;2023-05-24T00:23:09;31.53;;;7.27;;
56136;SDS011;42008;52.934;5.884;2023-05-24T00:25:35;35.87;;;7.43;;
56136;SDS011;42008;52.934;5.884;2023-05-24T00:28:00;27.93;;;7.17;;
56136;SDS011;42008;52.934;5.884;2023-05-24T00:30:26;43.10;;;8.30;;
56136;SDS011;42008;52.934;5.884;2023-05-24T00:32:51;29.33;;;7.37;;
56136;SDS011;42008;52.934;5.884;2023-05-24T00:35:17;37.03;;;8.13;;
56136;SDS011;42008;52.934;5.884;2023-05-24T00:37:43;39.10;;;8.27;;
56136;SDS011;42008;52.934;5.884;2023-05-24T00:40:12;38.90;;;7.20;;
56136;SDS011;42008;52.934;5.884;2023-05-24T00:42:38;39.43;;;9.73;;
56136;SDS011;42008;52.934;5.884;2023-05-24T00:45:04;39.60;;;8.73;;
56136;SDS011;42008;52.934;5.884;2023-05-24T00:47:30;39.30;;;9.17;;
56136;SDS011;42008;52.934;5.884;2023-05-24T00:49:57;37.03;;;8.77;;
56136;SDS011;42008;52.934;5.884;2023-05-24T00:52:23;32.10;;;8.03;;
56136;SDS011;42008;52.934;5.884;2023-05-24T00:54:49;32.37;;;8.30;;
56136;SDS011;42008;52.934;5.884;2023-05-24T00:57:15;42.87;;;8.57;;
56136;SDS011;42008;52.934;5.884;2023-05-24T00:59:42;24.77;;;7.47;;
56136;SDS011;42008;52.934;5.884;2023-05-24T01:02:09;33.43;;;7.47;;
56136;SDS011;42008;52.934;5.884;2023-05-24T01:04:35;32.57;;;8.27;;
56136;SDS011;42008;52.934;5.884;2023-05-24T01:07:08;31.30;;;7.70;;
56136;SDS011;42008;52.934;5.884;2023-05-24T01:13:03;34.47;;;8.50;;
56136;SDS011;42008;52.934;5.884;2023-05-24T01:15:50;42.73;;;8.50;;
56136;SDS011;42008;52.934;5.884;2023-05-24T01:29:26;36.07;;;8.87;;
56136;SDS011;42008;52.934;5.884;2023-05-24T01:31:55;35.57;;;8.30;;
56136;SDS011;42008;52.934;5.884;2023-05-24T01:34:20;31.40;;;7.73;;
56136;SDS011;42008;52.934;5.884;2023-05-24T01:36:46;27.80;;;7.87;;
56136;SDS011;42008;52.934;5.884;2023-05-24T01:39:12;36.13;;;8.33;;
56136;SDS011;42008;52.934;5.884;2023-05-24T01:44:31;33.10;;;8.10;;
56136;SDS011;42008;52.934;5.884;2023-05-24T01:49:49;35.47;;;8.13;;
56136;SDS011;42008;52.934;5.884;2023-05-24T01:52:21;33.57;;;7.20;;
56136;SDS011;42008;52.934;5.884;2023-05-24T01:54:51;32.07;;;8.27;;
56136;SDS011;42008;52.934;5.884;2023-05-24T01:57:18;36.70;;;8.03;;
56136;SDS011;42008;52.934;5.884;2023-05-24T01:59:47;38.17;;;8.53;;
56136;SDS011;42008;52.934;5.884;2023-05-24T02:02:14;37.53;;;7.63;;
56136;SDS011;42008;52.934;5.884;2023-05-24T02:04:39;42.90;;;9.33;;
56136;SDS011;42008;52.934;5.884;2023-05-24T02:07:05;35.80;;;7.40;;
56136;SDS011;42008;52.934;5.884;2023-05-24T02:09:31;39.83;;;7.33;;
56136;SDS011;42008;52.934;5.884;2023-05-24T02:11:57;34.53;;;8.03;;
56136;SDS011;42008;52.934;5.884;2023-05-24T02:14:22;36.73;;;7.93;;
56136;SDS011;42008;52.934;5.884;2023-05-24T02:16:48;36.13;;;7.30;;
56136;SDS011;42008;52.934;5.884;2023-05-24T02:19:14;31.53;;;7.03;;
56136;SDS011;42008;52.934;5.884;2023-05-24T02:21:41;38.33;;;8.83;;
56136;SDS011;42008;52.934;5.884;2023-05-24T02:24:07;35.17;;;6.80;;
56136;SDS011;42008;52.934;5.884;2023-05-24T02:26:35;39.63;;;8.00;;
56136;SDS011;42008;52.934;5.884;2023-05-24T02:29:02;34.37;;;7.93;;
56136;SDS011;42008;52.934;5.884;2023-05-24T02:31:27;31.57;;;6.40;;
56136;SDS011;42008;52.934;5.884;2023-05-24T02:33:56;25.97;;;7.07;;
56136;SDS011;42008;52.934;5.884;2023-05-24T02:36:22;37.47;;;7.50;;
56136;SDS011;42008;52.934;5.884;2023-05-24T02:38:48;35.20;;;8.03;;
56136;SDS011;42008;52.934;5.884;2023-05-24T02:41:14;37.73;;;7.00;;
56136;SDS011;42008;52.934;5.884;2023-05-24T02:43:42;30.27;;;6.57;;
56136;SDS011;42008;52.934;5.884;2023-05-24T02:46:08;40.80;;;7.60;;
56136;SDS011;42008;52.934;5.884;2023-05-24T02:48:34;32.00;;;7.73;;
56136;SDS011;42008;52.934;5.884;2023-05-24T02:51:00;31.90;;;6.93;;
56136;SDS011;42008;52.934;5.884;2023-05-24T02:53:27;33.63;;;7.07;;
56136;SDS011;42008;52.934;5.884;2023-05-24T02:55:53;35.73;;;7.10;;
56136;SDS011;42008;52.934;5.884;2023-05-24T02:58:19;32.53;;;7.27;;
56136;SDS011;42008;52.934;5.884;2023-05-24T03:00:44;32.43;;;6.27;;
56136;SDS011;42008;52.934;5.884;2023-05-24T03:03:10;30.47;;;7.13;;
56136;SDS011;42008;52.934;5.884;2023-05-24T03:05:36;29.03;;;6.50;;
56136;SDS011;42008;52.934;5.884;2023-05-24T03:08:02;38.03;;;7.00;;
56136;SDS011;42008;52.934;5.884;2023-05-24T03:10:28;31.00;;;5.87;;
56136;SDS011;42008;52.934;5.884;2023-05-24T03:12:53;36.83;;;7.07;;
56136;SDS011;42008;52.934;5.884;2023-05-24T03:15:19;24.63;;;6.37;;
56136;SDS011;42008;52.934;5.884;2023-05-24T03:17:45;32.93;;;6.67;;
56136;SDS011;42008;52.934;5.884;2023-05-24T03:20:10;35.23;;;8.00;;
56136;SDS011;42008;52.934;5.884;2023-05-24T03:22:36;29.43;;;6.30;;
56136;SDS011;42008;52.934;5.884;2023-05-24T03:25:02;27.83;;;6.00;;
56136;SDS011;42008;52.934;5.884;2023-05-24T03:27:28;29.87;;;5.90;;
56136;SDS011;42008;52.934;5.884;2023-05-24T03:29:54;26.10;;;5.37;;
56136;SDS011;42008;52.934;5.884;2023-05-24T03:32:19;23.23;;;5.17;;
56136;SDS011;42008;52.934;5.884;2023-05-24T03:34:45;30.00;;;5.93;;
56136;SDS011;42008;52.934;5.884;2023-05-24T03:37:10;27.23;;;5.70;;
56136;SDS011;42008;52.934;5.884;2023-05-24T03:39:36;28.13;;;6.23;;
56136;SDS011;42008;52.934;5.884;2023-05-24T03:42:01;34.20;;;7.10;;
56136;SDS011;42008;52.934;5.884;2023-05-24T03:44:27;23.33;;;5.97;;
56136;SDS011;42008;52.934;5.884;2023-05-24T03:46:55;27.97;;;6.23;;
56136;SDS011;42008;52.934;5.884;2023-05-24T03:49:20;33.83;;;6.63;;
56136;SDS011;42008;52.934;5.884;2023-05-24T03:51:46;30.90;;;6.07;;
56136;SDS011;42008;52.934;5.884;2023-05-24T03:54:12;25.23;;;5.53;;
56136;SDS011;42008;52.934;5.884;2023-05-24T03:56:37;27.40;;;5.90;;
56136;SDS011;42008;52.934;5.884;2023-05-24T03:59:03;24.03;;;6.23;;
56136;SDS011;42008;52.934;5.884;2023-05-24T04:01:29;21.30;;;5.40;;
56136;SDS011;42008;52.934;5.884;2023-05-24T04:03:57;23.63;;;5.53;;
56136;SDS011;42008;52.934;5.884;2023-05-24T04:06:25;23.80;;;6.07;;
56136;SDS011;42008;52.934;5.884;2023-05-24T04:08:56;27.17;;;6.23;;
56136;SDS011;42008;52.934;5.884;2023-05-24T04:11:23;36.93;;;6.63;;
56136;SDS011;42008;52.934;5.884;2023-05-24T04:13:52;28.40;;;5.63;;
56136;SDS011;42008;52.934;5.884;2023-05-24T04:16:22;32.80;;;7.00;;
56136;SDS011;42008;52.934;5.884;2023-05-24T04:18:49;34.23;;;6.10;;
56136;SDS011;42008;52.934;5.884;2023-05-24T04:21:14;35.10;;;6.00;;
56136;SDS011;42008;52.934;5.884;2023-05-24T04:23:40;28.47;;;6.47;;
56136;SDS011;42008;52.934;5.884;2023-05-24T04:26:06;27.07;;;5.87;;
56136;SDS011;42008;52.934;5.884;2023-05-24T04:28:32;33.23;;;6.67;;
56136;SDS011;42008;52.934;5.884;2023-05-24T04:30:58;25.33;;;5.80;;
56136;SDS011;42008;52.934;5.884;2023-05-24T04:33:23;29.63;;;5.60;;
56136;SDS011;42008;52.934;5.884;2023-05-24T04:35:49;25.73;;;6.07;;
56136;SDS011;42008;52.934;5.884;2023-05-24T04:38:14;30.67;;;6.03;;
56136;SDS011;42008;52.934;5.884;2023-05-24T04:40:40;32.07;;;6.90;;
56136;SDS011;42008;52.934;5.884;2023-05-24T04:43:06;25.53;;;5.87;;
56136;SDS011;42008;52.934;5.884;2023-05-24T04:45:34;24.80;;;5.50;;
56136;SDS011;42008;52.934;5.884;2023-05-24T04:48:00;26.03;;;5.60;;
56136;SDS011;42008;52.934;5.884;2023-05-24T04:50:27;24.80;;;5.67;;
56136;SDS011;42008;52.934;5.884;2023-05-24T04:52:53;21.53;;;5.77;;
56136;SDS011;42008;52.934;5.884;2023-05-24T04:55:18;26.33;;;6.40;;
56136;SDS011;42008;52.934;5.884;2023-05-24T04:57:44;35.07;;;6.43;;
56136;SDS011;42008;52.934;5.884;2023-05-24T05:00:10;26.60;;;6.03;;
56136;SDS011;42008;52.934;5.884;2023-05-24T05:02:36;42.30;;;7.13;;
56136;SDS011;42008;52.934;5.884;2023-05-24T05:05:01;33.93;;;7.17;;
56136;SDS011;42008;52.934;5.884;2023-05-24T05:07:27;41.17;;;8.27;;
56136;SDS011;42008;52.934;5.884;2023-05-24T05:09:53;26.83;;;6.20;;
56136;SDS011;42008;52.934;5.884;2023-05-24T05:12:18;30.70;;;5.70;;
56136;SDS011;42008;52.934;5.884;2023-05-24T05:14:44;26.23;;;5.70;;
56136;SDS011;42008;52.934;5.884;2023-05-24T05:17:09;27.37;;;6.47;;
56136;SDS011;42008;52.934;5.884;2023-05-24T05:19:35;31.27;;;6.57;;
56136;SDS011;42008;52.934;5.884;2023-05-24T05:22:00;29.10;;;5.27;;
56136;SDS011;42008;52.934;5.884;2023-05-24T05:24:26;27.40;;;6.20;;
56136;SDS011;42008;52.934;5.884;2023-05-24T05:26:52;35.63;;;5.90;;
56136;SDS011;42008;52.934;5.884;2023-05-24T05:29:17;28.17;;;5.63;;
56136;SDS011;42008;52.934;5.884;2023-05-24T05:31:43;33.13;;;6.47;;
56136;SDS011;42008;52.934;5.884;2023-05-24T05:34:08;32.80;;;6.57;;
56136;SDS011;42008;52.934;5.884;2023-05-24T05:36:35;28.93;;;6.67;;
56136;SDS011;42008;52.934;5.884;2023-05-24T05:39:05;31.53;;;6.80;;
56136;SDS011;42008;52.934;5.884;2023-05-24T05:41:37;26.90;;;6.37;;
56136;SDS011;42008;52.934;5.884;2023-05-24T05:44:03;31.93;;;6.33;;
56136;SDS011;42008;52.934;5.884;2023-05-24T05:46:29;35.30;;;5.93;;
56136;SDS011;42008;52.934;5.884;2023-05-24T05:48:55;29.27;;;5.50;;
56136;SDS011;42008;52.934;5.884;2023-05-24T05:51:20;30.07;;;6.00;;
56136;SDS011;42008;52.934;5.884;2023-05-24T05:53:46;26.90;;;5.53;;
56136;SDS011;42008;52.934;5.884;2023-05-24T05:56:11;32.87;;;5.90;;
56136;SDS011;42008;52.934;5.884;2023-05-24T05:58:37;42.80;;;7.43;;
56136;SDS011;42008;52.934;5.884;2023-05-24T06:01:03;29.47;;;6.40;;
56136;SDS011;42008;52.934;5.884;2023-05-24T06:03:29;33.67;;;6.40;;
56136;SDS011;42008;52.934;5.884;2023-05-24T06:05:54;27.47;;;6.00;;
56136;SDS011;42008;52.934;5.884;2023-05-24T06:08:20;27.77;;;5.70;;
56136;SDS011;42008;52.934;5.884;2023-05-24T06:10:46;40.10;;;6.93;;
56136;SDS011;42008;52.934;5.884;2023-05-24T06:13:13;29.93;;;5.70;;
56136;SDS011;42008;52.934;5.884;2023-05-24T06:15:38;33.13;;;6.97;;
56136;SDS011;42008;52.934;5.884;2023-05-24T06:18:04;30.63;;;6.00;;
56136;SDS011;42008;52.934;5.884;2023-05-24T06:20:30;30.77;;;6.97;;
56136;SDS011;42008;52.934;5.884;2023-05-24T06:22:55;28.17;;;5.60;;
56136;SDS011;42008;52.934;5.884;2023-05-24T06:25:21;25.23;;;5.70;;
56136;SDS011;42008;52.934;5.884;2023-05-24T06:27:48;28.27;;;5.93;;
56136;SDS011;42008;52.934;5.884;2023-05-24T06:30:15;32.93;;;5.77;;
56136;SDS011;42008;52.934;5.884;2023-05-24T06:32:41;24.53;;;5.47;;
56136;SDS011;42008;52.934;5.884;2023-05-24T06:35:07;28.87;;;5.90;;
56136;SDS011;42008;52.934;5.884;2023-05-24T06:37:33;36.43;;;6.53;;
56136;SDS011;42008;52.934;5.884;2023-05-24T06:39:58;34.37;;;7.00;;
56136;SDS011;42008;52.934;5.884;2023-05-24T06:42:24;28.00;;;5.57;;
56136;SDS011;42008;52.934;5.884;2023-05-24T06:44:49;34.17;;;6.77;;
56136;SDS011;42008;52.934;5.884;2023-05-24T06:47:15;32.00;;;6.20;;
56136;SDS011;42008;52.934;5.884;2023-05-24T06:49:43;31.57;;;6.77;;
56136;SDS011;42008;52.934;5.884;2023-05-24T06:52:09;30.80;;;6.10;;
56136;SDS011;42008;52.934;5.884;2023-05-24T06:54:34;30.10;;;6.00;;
56136;SDS011;42008;52.934;5.884;2023-05-24T06:57:00;29.03;;;5.57;;
56136;SDS011;42008;52.934;5.884;2023-05-24T06:59:25;25.33;;;6.40;;
56136;SDS011;42008;52.934;5.884;2023-05-24T07:01:51;23.63;;;6.03;;
56136;SDS011;42008;52.934;5.884;2023-05-24T07:04:21;27.73;;;6.63;;
56136;SDS011;42008;52.934;5.884;2023-05-24T07:06:48;25.73;;;6.27;;
56136;SDS011;42008;52.934;5.884;2023-05-24T07:09:14;21.40;;;5.57;;
56136;SDS011;42008;52.934;5.884;2023-05-24T07:11:40;36.07;;;6.50;;
56136;SDS011;42008;52.934;5.884;2023-05-24T07:14:05;24.70;;;5.97;;
56136;SDS011;42008;52.934;5.884;2023-05-24T07:16:31;31.30;;;6.27;;
56136;SDS011;42008;52.934;5.884;2023-05-24T07:18:56;26.17;;;5.93;;
56136;SDS011;42008;52.934;5.884;2023-05-24T07:21:22;34.30;;;7.23;;
56136;SDS011;42008;52.934;5.884;2023-05-24T07:23:49;29.07;;;6.57;;
56136;SDS011;42008;52.934;5.884;2023-05-24T07:26:15;26.17;;;5.67;;
56136;SDS011;42008;52.934;5.884;2023-05-24T07:28:41;27.43;;;5.90;;
56136;SDS011;42008;52.934;5.884;2023-05-24T07:31:10;38.67;;;6.50;;
56136;SDS011;42008;52.934;5.884;2023-05-24T07:33:35;28.80;;;5.83;;
56136;SDS011;42008;52.934;5.884;2023-05-24T07:36:02;22.07;;;5.33;;
56136;SDS011;42008;52.934;5.884;2023-05-24T07:38:28;27.73;;;5.53;;
56136;SDS011;42008;52.934;5.884;2023-05-24T07:40:55;21.20;;;5.33;;
56136;SDS011;42008;52.934;5.884;2023-05-24T07:43:23;26.07;;;5.57;;
56136;SDS011;42008;52.934;5.884;2023-05-24T07:45:51;20.33;;;4.67;;
56136;SDS011;42008;52.934;5.884;2023-05-24T07:48:17;25.53;;;5.60;;
56136;SDS011;42008;52.934;5.884;2023-05-24T07:50:43;19.17;;;4.50;;
56136;SDS011;42008;52.934;5.884;2023-05-24T07:53:12;21.27;;;4.33;;
56136;SDS011;42008;52.934;5.884;2023-05-24T07:55:41;19.40;;;4.17;;
56136;SDS011;42008;52.934;5.884;2023-05-24T07:58:08;20.53;;;4.93;;
56136;SDS011;42008;52.934;5.884;2023-05-24T08:00:34;25.37;;;5.50;;
56136;SDS011;42008;52.934;5.884;2023-05-24T08:03:00;20.73;;;4.30;;
56136;SDS011;42008;52.934;5.884;2023-05-24T08:05:25;26.27;;;4.93;;
56136;SDS011;42008;52.934;5.884;2023-05-24T08:07:51;18.00;;;4.63;;
56136;SDS011;42008;52.934;5.884;2023-05-24T08:10:17;16.00;;;4.00;;
56136;SDS011;42008;52.934;5.884;2023-05-24T08:12:43;17.83;;;4.27;;
56136;SDS011;42008;52.934;5.884;2023-05-24T08:15:09;19.10;;;4.30;;
56136;SDS011;42008;52.934;5.884;2023-05-24T08:17:35;28.37;;;4.67;;
56136;SDS011;42008;52.934;5.884;2023-05-24T08:20:04;24.60;;;5.03;;
56136;SDS011;42008;52.934;5.884;2023-05-24T08:22:31;21.37;;;4.23;;
56136;SDS011;42008;52.934;5.884;2023-05-24T08:24:56;19.40;;;4.23;;
56136;SDS011;42008;52.934;5.884;2023-05-24T08:27:22;21.03;;;3.90;;
56136;SDS011;42008;52.934;5.884;2023-05-24T08:29:48;19.63;;;4.67;;
56136;SDS011;42008;52.934;5.884;2023-05-24T08:32:13;18.80;;;3.80;;
56136;SDS011;42008;52.934;5.884;2023-05-24T08:34:39;16.57;;;3.97;;
56136;SDS011;42008;52.934;5.884;2023-05-24T08:37:05;14.43;;;4.10;;
56136;SDS011;42008;52.934;5.884;2023-05-24T08:39:31;17.07;;;3.70;;
56136;SDS011;42008;52.934;5.884;2023-05-24T08:41:57;23.40;;;4.33;;
56136;SDS011;42008;52.934;5.884;2023-05-24T08:44:24;24.20;;;4.67;;
56136;SDS011;42008;52.934;5.884;2023-05-24T08:46:50;17.40;;;4.27;;
56136;SDS011;42008;52.934;5.884;2023-05-24T08:49:18;21.83;;;4.33;;
56136;SDS011;42008;52.934;5.884;2023-05-24T08:51:45;22.63;;;4.70;;
56136;SDS011;42008;52.934;5.884;2023-05-24T08:54:11;20.90;;;5.00;;
56136;SDS011;42008;52.934;5.884;2023-05-24T08:56:39;17.40;;;4.17;;
56136;SDS011;42008;52.934;5.884;2023-05-24T08:59:05;18.80;;;4.33;;
56136;SDS011;42008;52.934;5.884;2023-05-24T09:01:32;20.57;;;4.47;;
56136;SDS011;42008;52.934;5.884;2023-05-24T09:04:01;18.90;;;4.30;;
56136;SDS011;42008;52.934;5.884;2023-05-24T09:06:28;16.93;;;4.57;;
56136;SDS011;42008;52.934;5.884;2023-05-24T09:08:54;21.97;;;5.20;;
56136;SDS011;42008;52.934;5.884;2023-05-24T09:11:22;20.43;;;4.40;;
56136;SDS011;42008;52.934;5.884;2023-05-24T09:13:50;19.27;;;4.37;;
56136;SDS011;42008;52.934;5.884;2023-05-24T09:16:15;26.80;;;4.93;;
56136;SDS011;42008;52.934;5.884;2023-05-24T09:18:41;23.97;;;4.93;;
56136;SDS011;42008;52.934;5.884;2023-05-24T09:21:07;22.00;;;4.97;;
56136;SDS011;42008;52.934;5.884;2023-05-24T09:23:34;13.47;;;4.30;;
56136;SDS011;42008;52.934;5.884;2023-05-24T09:26:05;14.73;;;4.27;;
56136;SDS011;42008;52.934;5.884;2023-05-24T09:28:35;30.03;;;6.00;;
56136;SDS011;42008;52.934;5.884;2023-05-24T09:31:02;30.47;;;5.63;;
56136;SDS011;42008;52.934;5.884;2023-05-24T09:33:31;19.53;;;4.67;;
56136;SDS011;42008;52.934;5.884;2023-05-24T09:35:58;19.77;;;4.57;;
56136;SDS011;42008;52.934;5.884;2023-05-24T09:38:25;24.93;;;6.13;;
56136;SDS011;42008;52.934;5.884;2023-05-24T09:40:58;16.37;;;4.93;;
56136;SDS011;42008;52.934;5.884;2023-05-24T09:43:26;20.57;;;4.57;;
56136;SDS011;42008;52.934;5.884;2023-05-24T09:45:54;24.37;;;5.33;;
56136;SDS011;42008;52.934;5.884;2023-05-24T09:48:22;21.67;;;4.80;;
56136;SDS011;42008;52.934;5.884;2023-05-24T09:53:43;15.80;;;3.63;;
56136;SDS011;42008;52.934;5.884;2023-05-24T09:56:09;14.17;;;4.00;;
56136;SDS011;42008;52.934;5.884;2023-05-24T09:58:35;19.67;;;4.23;;
56136;SDS011;42008;52.934;5.884;2023-05-24T10:01:20;15.80;;;4.10;;
56136;SDS011;42008;52.934;5.884;2023-05-24T10:03:54;17.27;;;3.97;;
56136;SDS011;42008;52.934;5.884;2023-05-24T10:06:22;16.33;;;4.37;;
56136;SDS011;42008;52.934;5.884;2023-05-24T10:08:48;15.90;;;4.00;;
56136;SDS011;42008;52.934;5.884;2023-05-24T10:11:15;21.30;;;4.53;;
56136;SDS011;42008;52.934;5.884;2023-05-24T10:13:42;18.83;;;3.90;;
56136;SDS011;42008;52.934;5.884;2023-05-24T10:16:08;14.17;;;4.17;;
56136;SDS011;42008;52.934;5.884;2023-05-24T10:18:34;28.27;;;5.03;;
56136;SDS011;42008;52.934;5.884;2023-05-24T10:21:00;15.20;;;4.43;;
56136;SDS011;42008;52.934;5.884;2023-05-24T10:23:30;15.93;;;4.30;;
56136;SDS011;42008;52.934;5.884;2023-05-24T10:26:07;17.50;;;4.50;;
56136;SDS011;42008;52.934;5.884;2023-05-24T10:28:37;26.33;;;10.20;;
56136;SDS011;42008;52.934;5.884;2023-05-24T10:31:17;19.95;;;7.60;;
56136;SDS011;42008;52.934;5.884;2023-05-24T10:33:50;22.33;;;9.93;;
56136;SDS011;42008;52.934;5.884;2023-05-24T10:36:17;22.20;;;5.93;;
56136;SDS011;42008;52.934;5.884;2023-05-24T10:38:46;18.83;;;6.10;;
56136;SDS011;42008;52.934;5.884;2023-05-24T10:41:12;15.60;;;5.00;;
56136;SDS011;42008;52.934;5.884;2023-05-24T10:43:38;27.00;;;5.20;;
56136;SDS011;42008;52.934;5.884;2023-05-24T10:46:04;20.67;;;4.63;;
56136;SDS011;42008;52.934;5.884;2023-05-24T10:48:39;18.20;;;4.87;;
56136;SDS011;42008;52.934;5.884;2023-05-24T10:54:21;14.93;;;3.97;;
56136;SDS011;42008;52.934;5.884;2023-05-24T10:56:51;18.00;;;4.30;;
56136;SDS011;42008;52.934;5.884;2023-05-24T10:59:21;21.77;;;4.83;;
56136;SDS011;42008;52.934;5.884;2023-05-24T11:01:58;17.87;;;4.13;;
56136;SDS011;42008;52.934;5.884;2023-05-24T11:04:25;18.53;;;4.37;;
56136;SDS011;42008;52.934;5.884;2023-05-24T11:06:57;13.73;;;3.53;;
56136;SDS011;42008;52.934;5.884;2023-05-24T11:09:26;18.53;;;4.10;;
56136;SDS011;42008;52.934;5.884;2023-05-24T11:11:56;14.80;;;4.10;;
56136;SDS011;42008;52.934;5.884;2023-05-24T11:14:37;14.43;;;4.40;;
56136;SDS011;42008;52.934;5.884;2023-05-24T11:17:04;12.27;;;3.67;;
56136;SDS011;42008;52.934;5.884;2023-05-24T11:19:32;12.60;;;4.33;;
56136;SDS011;42008;52.934;5.884;2023-05-24T11:21:59;15.87;;;4.23;;
56136;SDS011;42008;52.934;5.884;2023-05-24T11:24:27;15.67;;;3.83;;
56136;SDS011;42008;52.934;5.884;2023-05-24T11:26:54;18.13;;;4.47;;
56136;SDS011;42008;52.934;5.884;2023-05-24T11:29:21;18.23;;;4.80;;
56136;SDS011;42008;52.934;5.884;2023-05-24T11:34:17;17.73;;;4.47;;
56136;SDS011;42008;52.934;5.884;2023-05-24T11:36:43;17.47;;;3.80;;
56136;SDS011;42008;52.934;5.884;2023-05-24T11:39:10;14.10;;;3.60;;
56136;SDS011;42008;52.934;5.884;2023-05-24T11:41:37;11.40;;;3.20;;
56136;SDS011;42008;52.934;5.884;2023-05-24T11:44:03;15.50;;;4.13;;
56136;SDS011;42008;52.934;5.884;2023-05-24T11:46:33;18.67;;;4.33;;
56136;SDS011;42008;52.934;5.884;2023-05-24T11:48:59;13.43;;;3.93;;
56136;SDS011;42008;52.934;5.884;2023-05-24T11:51:28;14.93;;;3.67;;
56136;SDS011;42008;52.934;5.884;2023-05-24T11:53:55;15.57;;;4.17;;
56136;SDS011;42008;52.934;5.884;2023-05-24T11:56:21;10.47;;;3.93;;
56136;SDS011;42008;52.934;5.884;2023-05-24T11:58:48;15.90;;;3.40;;
56136;SDS011;42008;52.934;5.884;2023-05-24T12:01:27;18.53;;;5.23;;
56136;SDS011;42008;52.934;5.884;2023-05-24T12:03:53;15.40;;;4.00;;
56136;SDS011;42008;52.934;5.884;2023-05-24T12:06:19;14.40;;;3.37;;
56136;SDS011;42008;52.934;5.884;2023-05-24T12:08:46;20.57;;;3.90;;
56136;SDS011;42008;52.934;5.884;2023-05-24T12:11:12;8.77;;;3.40;;
56136;SDS011;42008;52.934;5.884;2023-05-24T12:13:38;8.07;;;2.50;;
56136;SDS011;42008;52.934;5.884;2023-05-24T12:16:04;13.87;;;3.53;;
56136;SDS011;42008;52.934;5.884;2023-05-24T12:18:31;14.33;;;3.70;;
56136;SDS011;42008;52.934;5.884;2023-05-24T12:20:57;50.47;;;6.23;;
56136;SDS011;42008;52.934;5.884;2023-05-24T12:23:23;14.00;;;3.77;;
56136;SDS011;42008;52.934;5.884;2023-05-24T12:25:56;15.83;;;3.73;;
56136;SDS011;42008;52.934;5.884;2023-05-24T12:30:49;19.43;;;4.30;;
56136;SDS011;42008;52.934;5.884;2023-05-24T12:33:17;14.37;;;4.30;;
56136;SDS011;42008;52.934;5.884;2023-05-24T12:35:43;16.83;;;3.90;;
56136;SDS011;42008;52.934;5.884;2023-05-24T12:38:11;15.80;;;3.93;;
56136;SDS011;42008;52.934;5.884;2023-05-24T12:40:39;20.30;;;4.80;;
56136;SDS011;42008;52.934;5.884;2023-05-24T12:43:07;18.67;;;4.57;;
56136;SDS011;42008;52.934;5.884;2023-05-24T12:45:34;12.53;;;4.20;;
56136;SDS011;42008;52.934;5.884;2023-05-24T12:48:01;12.00;;;3.87;;
56136;SDS011;42008;52.934;5.884;2023-05-24T12:50:28;12.93;;;4.10;;
56136;SDS011;42008;52.934;5.884;2023-05-24T12:52:55;11.27;;;3.60;;
56136;SDS011;42008;52.934;5.884;2023-05-24T12:55:21;14.40;;;4.10;;
56136;SDS011;42008;52.934;5.884;2023-05-24T12:57:50;8.37;;;2.87;;
56136;SDS011;42008;52.934;5.884;2023-05-24T13:00:20;12.00;;;3.40;;
56136;SDS011;42008;52.934;5.884;2023-05-24T13:02:47;10.30;;;3.80;;
56136;SDS011;42008;52.934;5.884;2023-05-24T13:05:13;13.23;;;2.90;;
56136;SDS011;42008;52.934;5.884;2023-05-24T13:07:39;16.77;;;4.43;;
56136;SDS011;42008;52.934;5.884;2023-05-24T13:10:07;16.00;;;3.20;;
56136;SDS011;42008;52.934;5.884;2023-05-24T13:12:33;16.37;;;3.90;;
56136;SDS011;42008;52.934;5.884;2023-05-24T13:14:59;10.33;;;2.90;;
56136;SDS011;42008;52.934;5.884;2023-05-24T13:17:25;12.13;;;3.00;;
56136;SDS011;42008;52.934;5.884;2023-05-24T13:19:51;15.77;;;3.67;;
56136;SDS011;42008;52.934;5.884;2023-05-24T13:22:16;13.93;;;3.10;;
56136;SDS011;42008;52.934;5.884;2023-05-24T13:24:42;13.20;;;2.90;;
56136;SDS011;42008;52.934;5.884;2023-05-24T13:27:08;15.27;;;3.00;;
56136;SDS011;42008;52.934;5.884;2023-05-24T13:29:34;15.53;;;3.30;;
56136;SDS011;42008;52.934;5.884;2023-05-24T13:31:59;10.37;;;2.80;;
56136;SDS011;42008;52.934;5.884;2023-05-24T13:34:25;10.47;;;3.03;;
56136;SDS011;42008;52.934;5.884;2023-05-24T13:36:51;9.43;;;2.80;;
56136;SDS011;42008;52.934;5.884;2023-05-24T13:39:18;15.83;;;3.50;;
56136;SDS011;42008;52.934;5.884;2023-05-24T13:41:45;16.50;;;3.43;;
56136;SDS011;42008;52.934;5.884;2023-05-24T13:44:11;11.80;;;2.80;;
56136;SDS011;42008;52.934;5.884;2023-05-24T13:46:37;16.03;;;3.57;;
56136;SDS011;42008;52.934;5.884;2023-05-24T13:49:04;13.77;;;3.13;;
56136;SDS011;42008;52.934;5.884;2023-05-24T13:51:30;14.83;;;3.33;;
56136;SDS011;42008;52.934;5.884;2023-05-24T13:53:55;11.37;;;3.40;;
56136;SDS011;42008;52.934;5.884;2023-05-24T13:56:21;11.60;;;3.17;;
56136;SDS011;42008;52.934;5.884;2023-05-24T13:58:48;17.57;;;3.33;;
56136;SDS011;42008;52.934;5.884;2023-05-24T14:01:14;13.63;;;3.47;;
56136;SDS011;42008;52.934;5.884;2023-05-24T14:03:39;11.63;;;3.27;;
56136;SDS011;42008;52.934;5.884;2023-05-24T14:06:08;11.17;;;3.37;;
56136;SDS011;42008;52.934;5.884;2023-05-24T14:08:34;10.57;;;3.40;;
56136;SDS011;42008;52.934;5.884;2023-05-24T14:10:59;17.60;;;4.07;;
56136;SDS011;42008;52.934;5.884;2023-05-24T14:13:25;27.20;;;4.20;;
56136;SDS011;42008;52.934;5.884;2023-05-24T14:15:51;16.00;;;3.80;;
56136;SDS011;42008;52.934;5.884;2023-05-24T14:18:16;8.43;;;3.30;;
56136;SDS011;42008;52.934;5.884;2023-05-24T14:20:42;12.10;;;3.60;;
56136;SDS011;42008;52.934;5.884;2023-05-24T14:23:08;10.43;;;3.07;;
56136;SDS011;42008;52.934;5.884;2023-05-24T14:25:34;15.17;;;3.60;;
56136;SDS011;42008;52.934;5.884;2023-05-24T14:27:59;12.77;;;3.43;;
56136;SDS011;42008;52.934;5.884;2023-05-24T14:30:25;11.90;;;3.30;;
56136;SDS011;42008;52.934;5.884;2023-05-24T14:32:51;10.20;;;2.70;;
56136;SDS011;42008;52.934;5.884;2023-05-24T14:35:16;11.47;;;3.60;;
56136;SDS011;42008;52.934;5.884;2023-05-24T14:37:42;18.07;;;4.07;;
56136;SDS011;42008;52.934;5.884;2023-05-24T14:40:08;11.00;;;4.00;;
56136;SDS011;42008;52.934;5.884;2023-05-24T14:42:34;17.23;;;4.73;;
56136;SDS011;42008;52.934;5.884;2023-05-24T14:45:00;16.77;;;3.87;;
56136;SDS011;42008;52.934;5.884;2023-05-24T14:47:25;21.90;;;3.60;;
56136;SDS011;42008;52.934;5.884;2023-05-24T14:49:52;13.27;;;3.70;;
56136;SDS011;42008;52.934;5.884;2023-05-24T14:52:18;13.10;;;3.63;;
56136;SDS011;42008;52.934;5.884;2023-05-24T14:54:43;24.63;;;4.07;;
56136;SDS011;42008;52.934;5.884;2023-05-24T14:57:09;14.18;;;3.63;;
56136;SDS011;42008;52.934;5.884;2023-05-24T14:59:36;9.30;;;2.95;;
56136;SDS011;42008;52.934;5.884;2023-05-24T15:02:01;11.65;;;3.53;;
56136;SDS011;42008;52.934;5.884;2023-05-24T15:04:27;18.52;;;3.97;;